Flight Track Log - Related Links

Times and Time Zones

All times are in EDT time to prevent confusion due to time zone crossing. See the N3131B flight status page for this flight to view local times or setup timezone preferences in your user account.

Time Position Orientation Groundspeed Altitude Reporting Facility
EDT Latitude Longitude Course Direction KTS MPH feet Rate Location/Type
Sun 05:04:09 PM 40.8108 -115.8211 257° West 95 109 5,800  Level Salt Lake Center
Sun 05:05:00 PM 40.7308 -116.0518 270° West  Level Estimated
Sun 05:05:11 PM 40.7986 -115.8475 239° Southwest 91 105 6,500  Level Salt Lake Center
Sun 05:06:00 PM 40.7150 -116.0951 258° West  Level Estimated
Sun 05:06:13 PM 40.7806 -115.8800 234° Southwest 93 107 7,100  Level Salt Lake Center
Sun 05:07:00 PM 40.7067 -116.1419 257° West  Level FlightAware Approximate
Sun 05:07:15 PM 40.7631 -115.9031 225° Southwest 94 108 7,500  Level Salt Lake Center
Sun 05:08:00 PM 40.6984 -116.1886 257° West  Level FlightAware Approximate
Sun 05:08:16 PM 40.7456 -115.9381 237° Southwest 99 114 8,100  Level Salt Lake Center
Sun 05:09:00 PM 40.6901 -116.2354 257° West  Level FlightAware Approximate
Sun 05:09:18 PM 40.7306 -115.9650 234° Southwest 97 112 8,500  Level Salt Lake Center
Sun 05:10:20 PM 40.7200 -115.9928 243° Southwest 93 107 8,800 339 Climbing Salt Lake Center
Sun 05:11:22 PM 40.7144 -116.0300 259° West 91 105 9,200 339 Climbing Salt Lake Center
Sun 05:12:24 PM 40.7100 -116.0617 260° West 92 106 9,500 387 Climbing Salt Lake Center
Sun 05:13:26 PM 40.7036 -116.0994 257° West 93 107 10,000 387 Climbing Salt Lake Center
Sun 05:14:28 PM 40.7003 -116.1314 262° West 93 107 10,300 339 Climbing Salt Lake Center
Sun 05:15:30 PM 40.6933 -116.1697 257° West 94 108 10,700 341 Climbing Salt Lake Center
Sun 05:16:31 PM 40.6867 -116.2028 255° West 96 110 11,000 293 Climbing Salt Lake Center
Sun 05:17:33 PM 40.6814 -116.2392 259° West 93 107 11,300 290 Climbing Salt Lake Center
Sun 05:18:35 PM 40.6764 -116.2700 258° West 92 106 11,600 290 Climbing Salt Lake Center
Sun 05:19:37 PM 40.6708 -116.2997 256° West 90 104 11,900 242 Climbing Salt Lake Center
Sun 05:20:39 PM 40.6656 -116.3350 259° West 88 101 12,100 97 Climbing Salt Lake Center
Sun 05:21:41 PM 40.6600 -116.3686 258° West 93 107 12,100 48 Level Salt Lake Center
Sun 05:22:43 PM 40.6539 -116.4056 258° West 94 108 12,200 48 Climbing Salt Lake Center
Sun 05:23:45 PM 40.6494 -116.4403 260° West 96 110 12,200  Level Salt Lake Center
Sun 05:24:47 PM 40.6408 -116.4808 254° West 100 115 12,200  Level Salt Lake Center
Sun 05:25:49 PM 40.6347 -116.5167 257° West 103 119 12,200 48 Level Salt Lake Center
Sun 05:26:51 PM 40.6278 -116.5600 258° West 106 122 12,300  Climbing Salt Lake Center
Sun 05:27:53 PM 40.6219 -116.6025 260° West 114 131 12,200 -97 Descending Salt Lake Center
Sun 05:28:55 PM 40.6139 -116.6539 258° West 123 142 12,100  Descending Salt Lake Center
Sun 05:29:57 PM 40.6092 -116.6986 262° West 128 147 12,200 48 Climbing Salt Lake Center
Sun 05:30:59 PM 40.5981 -116.7478 253° West 126 145 12,200 -48 Level Salt Lake Center
Sun 05:32:01 PM 40.5917 -116.7936 260° West 130 150 12,100  Descending Salt Lake Center
Sun 05:33:03 PM 40.5819 -116.8469 257° West 133 153 12,200 48 Climbing Salt Lake Center
Sun 05:34:05 PM 40.5750 -116.8936 259° West 135 155 12,200  Level Salt Lake Center
Sun 05:35:07 PM 40.5650 -116.9469 256° West 135 155 12,200  Level Salt Lake Center
Sun 05:36:09 PM 40.5525 -116.9925 250° West 138 159 12,200 -48 Level Salt Lake Center
Sun 05:37:11 PM 40.5411 -117.0383 252° West 138 159 12,100 -48 Descending Salt Lake Center
Sun 05:38:13 PM 40.5281 -117.0914 252° West 137 158 12,100  Level Salt Lake Center
Sun 05:39:15 PM 40.5167 -117.1367 252° West 137 158 12,100  Level Salt Lake Center
Sun 05:40:17 PM 40.5003 -117.1886 247° West 138 159 12,100  Level Salt Lake Center
Sun 05:41:19 PM 40.4911 -117.2328 255° West 135 155 12,100 48 Level Salt Lake Center
Sun 05:42:21 PM 40.4767 -117.2842 250° West 134 154 12,200  Climbing Salt Lake Center
Sun 05:43:23 PM 40.4639 -117.3297 250° West 136 157 12,100  Descending Salt Lake Center
Sun 05:44:25 PM 40.4503 -117.3831 251° West 138 159 12,200  Climbing Salt Lake Center
Sun 05:45:27 PM 40.4375 -117.4314 251° West 141 162 12,100  Descending Salt Lake Center
Sun 05:46:29 PM 40.4214 -117.4889 250° West 147 169 12,200 48 Climbing Salt Lake Center
Sun 05:47:32 PM 40.4069 -117.5386 249° West 152 175 12,200  Level Salt Lake Center
Sun 05:48:34 PM 40.3950 -117.5897 253° West 137 158 12,200 -48 Level Salt Lake Center
Sun 05:49:36 PM 40.3814 -117.6356 249° West 139 160 12,100  Descending Salt Lake Center
Sun 05:50:38 PM 40.3683 -117.6892 252° West 139 160 12,200 48 Climbing Salt Lake Center
Sun 05:51:40 PM 40.3558 -117.7372 251° West 142 163 12,200  Level Salt Lake Center
Sun 05:52:42 PM 40.3406 -117.7911 250° West 142 163 12,200  Level Salt Lake Center
Sun 05:53:44 PM 40.3297 -117.8361 252° West 137 158 12,200 -49 Level Salt Lake Center
Sun 05:54:45 PM 40.3167 -117.8803 249° West 136 157 12,100 -49 Descending Salt Lake Center
Sun 05:55:47 PM 40.3025 -117.9325 250° West 136 157 12,100  Level Salt Lake Center
Sun 05:56:49 PM 40.2897 -117.9772 249° West 136 157 12,100  Level Salt Lake Center
Sun 05:57:51 PM 40.2761 -118.0297 251° West 136 157 12,100  Level Salt Lake Center
Sun 05:58:53 PM 40.2636 -118.0736 250° West 134 154 12,100  Level Salt Lake Center
Sun 05:59:55 PM 40.2492 -118.1258 250° West 136 157 12,100  Level Salt Lake Center
Sun 06:00:57 PM 40.2364 -118.1728 250° West 141 162 12,100  Level Salt Lake Center
Sun 06:01:59 PM 40.2233 -118.2247 252° West 136 157 12,100 49 Level Salt Lake Center
Sun 06:03:00 PM 40.2111 -118.2692 250° West 136 157 12,200  Climbing Salt Lake Center
Sun 06:04:02 PM 40.1978 -118.3156 249° West 140 161 12,100  Descending Salt Lake Center
Sun 06:05:04 PM 40.1833 -118.3653 249° West 134 154 12,200  Climbing Salt Lake Center
Sun 06:06:06 PM 40.1708 -118.4108 250° West 137 158 12,100 -49 Descending Salt Lake Center
Sun 06:07:07 PM 40.1569 -118.4633 251° West 137 158 12,100 49 Level Salt Lake Center
Sun 06:08:09 PM 40.1444 -118.5058 249° West 132 152 12,200 48 Climbing Salt Lake Center
Sun 06:09:11 PM 40.1319 -118.5617 254° West 140 161 12,200 -40 Level Salt Lake Center
Sun 06:10:39 PM 40.1072 -118.6317 245° Southwest 145 167 12,100  Descending Oakland Center
Sun 06:11:41 PM 40.0772 -118.6700 224° Southwest 150 173 12,200  Climbing Oakland Center
Sun 06:12:43 PM 40.0503 -118.7128 231° Southwest 152 175 12,100 -49 Descending Oakland Center
Sun 06:13:44 PM 40.0306 -118.7581 240° Southwest 146 168 12,100  Level Oakland Center
Sun 06:14:46 PM 40.0056 -118.7978 231° Southwest 143 165 12,100  Level Oakland Center
Sun 06:15:48 PM 39.9819 -118.8403 234° Southwest 144 166 12,100  Level Oakland Center
Sun 06:16:50 PM 39.9556 -118.8889 235° Southwest 140 161 12,100  Level Oakland Center
Sun 06:17:51 PM 39.9331 -118.9303 235° Southwest 140 161 12,100  Level Oakland Center
Sun 06:18:53 PM 39.9092 -118.9728 234° Southwest 144 166 12,100 49 Level Oakland Center
Sun 06:19:54 PM 39.8853 -119.0158 234° Southwest 146 168 12,200  Climbing Oakland Center
Sun 06:20:56 PM 39.8608 -119.0594 234° Southwest 148 170 12,100 -49 Descending Oakland Center
Sun 06:21:57 PM 39.8372 -119.1039 235° Southwest 148 170 12,100  Level Oakland Center
Sun 06:22:59 PM 39.8147 -119.1464 235° Southwest 144 166 12,100  Level Oakland Center
Sun 06:24:00 PM 39.7875 -119.1969 235° Southwest 142 163 12,100  Level Oakland Center
Sun 06:25:02 PM 39.7633 -119.2369 232° Southwest 141 162 12,100  Level Oakland Center
Sun 06:26:03 PM 39.7392 -119.2794 234° Southwest 145 167 12,100  Level Oakland Center
Sun 06:27:05 PM 39.7183 -119.3203 236° Southwest 139 160 12,100 244 Level Oakland Center
Sun 06:28:06 PM 39.6942 -119.3594 231° Southwest 139 160 12,600 439 Climbing Oakland Center
Sun 06:29:08 PM 39.6733 -119.3925 231° Southwest 125 144 13,000 244 Climbing Oakland Center
Sun 06:30:09 PM 39.6531 -119.4314 236° Southwest 120 138 13,100  Climbing Oakland Center
Sun 06:31:11 PM 39.6336 -119.4714 238° Southwest 136 157 13,000 -49 Descending Oakland Center
Sun 06:32:12 PM 39.6042 -119.5219 233° Southwest 144 166 13,000  Level Oakland Center
Sun 06:33:14 PM 39.5819 -119.5614 234° Southwest 139 160 13,000  Level Oakland Center
Sun 06:34:15 PM 39.5606 -119.6017 235° Southwest 136 157 13,000  Level Oakland Center
Sun 06:35:17 PM 39.5358 -119.6428 232° Southwest 140 161 13,000 49 Level Oakland Center
Sun 06:36:18 PM 39.5142 -119.6869 238° Southwest 145 167 13,100  Climbing Oakland Center
Sun 06:37:20 PM 39.5094 -119.7361 263° West 138 159 13,000 -49 Descending Oakland Center
Sun 06:38:21 PM 39.5081 -119.7797 268° West 125 144 13,000  Level Oakland Center
Sun 06:39:30 PM 39.5000 -119.8333 259° West 108 124 13,000  Level Northern Cal TRACON
Sun 06:40:25 PM 39.4867 -119.8789 249° West 134 154 13,000  Level Oakland Center
Sun 06:41:26 PM 39.4781 -119.9281 257° West 140 161 13,000  Level Oakland Center
Sun 06:42:28 PM 39.4689 -119.9761 256° West 139 160 13,000  Level Oakland Center
Sun 06:43:29 PM 39.4631 -120.0203 260° West 128 147 13,000  Level Oakland Center
Sun 06:44:31 PM 39.4508 -120.0683 252° West 135 155 13,000 49 Level Oakland Center
Sun 06:45:32 PM 39.4447 -120.1139 260° West 133 153 13,100  Climbing Oakland Center
Sun 06:46:34 PM 39.4344 -120.1622 255° West 131 151 13,000  Descending Oakland Center
Sun 06:47:35 PM 39.4267 -120.2097 258° West 134 154 13,100 49 Climbing Oakland Center
Sun 06:48:37 PM 39.4172 -120.2581 256° West 138 159 13,100 -48 Level Oakland Center
Sun 06:49:39 PM 39.4078 -120.3044 255° West 137 158 13,000 -49 Descending Oakland Center
Sun 06:50:40 PM 39.3969 -120.3544 254° West 134 154 13,000 38 Level Oakland Center
Sun 06:52:19 PM 39.3739 -120.4333 249° West 171 197 13,100 -38 Climbing Oakland Center
Sun 06:53:20 PM 39.3328 -120.4608 207° Southwest 166 191 12,900 -98 Descending Oakland Center
Sun 06:54:22 PM 39.3067 -120.5031 231° Southwest 157 181 12,900  Level Oakland Center
Sun 06:55:23 PM 39.2856 -120.5442 236° Southwest 140 161 12,900  Level Oakland Center
Sun 06:56:25 PM 39.2608 -120.5867 233° Southwest 146 168 12,900 -146 Level Oakland Center
Sun 06:57:26 PM 39.2350 -120.6281 231° Southwest 149 171 12,600 -341 Descending Oakland Center
Sun 06:58:28 PM 39.2072 -120.6761 233° Southwest 164 189 12,200 -244 Descending Oakland Center
Sun 06:59:29 PM 39.1747 -120.7325 233° Southwest 162 186 12,100 -49 Descending Oakland Center
Sun 07:00:31 PM 39.1489 -120.7736 231° Southwest 149 171 12,100 -49 Level Oakland Center
Sun 07:01:32 PM 39.1231 -120.8164 232° Southwest 150 173 12,000 -49 Descending Oakland Center
Sun 07:02:34 PM 39.0981 -120.8583 232° Southwest 149 171 12,000  Level Oakland Center
Sun 07:03:35 PM 39.0725 -120.9014 233° Southwest 150 173 12,000  Level Oakland Center
Sun 07:04:37 PM 39.0467 -120.9436 232° Southwest 150 173 12,000  Level Oakland Center
Sun 07:05:38 PM 39.0222 -120.9875 234° Southwest 151 174 12,000  Level Oakland Center
Sun 07:06:40 PM 38.9953 -121.0306 231° Southwest 155 178 12,000  Level Oakland Center
Sun 07:07:41 PM 38.9642 -121.0814 232° Southwest 150 173 12,000  Level Oakland Center
Sun 07:08:43 PM 38.9381 -121.1239 232° Southwest 151 174 12,000  Level Oakland Center
Sun 07:09:44 PM 38.9131 -121.1667 233° Southwest 151 174 12,000  Level Oakland Center
Sun 07:10:46 PM 38.8881 -121.2094 233° Southwest 150 173 12,000  Level Oakland Center
Sun 07:11:47 PM 38.8622 -121.2514 232° Southwest 150 173 12,000  Level Oakland Center
Sun 07:12:49 PM 38.8358 -121.2950 232° Southwest 154 177 12,000  Level Oakland Center
Sun 07:13:49 PM 38.8000 -121.3500 230° Southwest 149 171 12,000  Level Northern Cal TRACON
Sun 07:14:49 PM 38.7833 -121.3833 237° Southwest 151 174 12,000 50 Level Northern Cal TRACON
Sun 07:15:49 PM 38.7500 -121.4167 218° Southwest 155 178 12,100  Climbing Northern Cal TRACON
Sun 07:16:49 PM 38.7333 -121.4667 247° West 155 178 12,000 -50 Descending Northern Cal TRACON
Sun 07:17:49 PM 38.7000 -121.5000 218° Southwest 150 173 12,000  Level Northern Cal TRACON
Sun 07:18:49 PM 38.6833 -121.5500 247° West 147 169 12,000  Level Northern Cal TRACON
Sun 07:21:00 PM 38.6239 -121.6283 226° Southwest 149 171 12,000  Level Oakland Center
Sun 07:22:02 PM 38.5978 -121.6692 231° Southwest 149 171 12,000 49 Level Oakland Center
Sun 07:23:03 PM 38.5667 -121.7181 231° Southwest 149 171 12,100 49 Climbing Oakland Center
Sun 07:24:05 PM 38.5392 -121.7614 231° Southwest 155 178 12,100  Level Oakland Center
Sun 07:25:07 PM 38.5139 -121.8033 232° Southwest 151 174 12,100 -49 Level Oakland Center
Sun 07:26:08 PM 38.4889 -121.8456 233° Southwest 151 174 12,000 -146 Descending Oakland Center
Sun 07:27:10 PM 38.4625 -121.8872 231° Southwest 151 174 11,800 -488 Descending Oakland Center
Sun 07:28:11 PM 38.4339 -121.9367 234° Southwest 169 194 11,000 -1,024 Descending Oakland Center
Sun 07:29:13 PM 38.3989 -121.9892 230° Southwest 188 216 9,700 -1,366 Descending Oakland Center
Sun 07:30:14 PM 38.3589 -122.0544 232° Southwest 195 224 8,200 -1,415 Descending Oakland Center
Sun 07:31:16 PM 38.3236 -122.1069 229° Southwest 195 224 6,800 -1,366 Descending Oakland Center
Sun 07:32:17 PM 38.2917 -122.1575 231° Southwest 189 217 5,400 -1,268 Descending Oakland Center
Sun 07:33:19 PM 38.2653 -122.2033 234° Southwest 167 192 4,200 -1,161 Descending Oakland Center
Sun 07:34:21 PM 38.2322 -122.2122 192° South 159 183 3,000 -1,317 Descending Oakland Center
Sun 07:35:22 PM 38.2164 -122.2328 226° Southwest 134 154 1,500 -1,268 Descending Oakland Center
Sun 07:36:24 PM 38.2114 -122.2650 259° West 111 128 400 -1,065 Descending Oakland Center

Login

Don't have an account? Register now (free) for customized features, flight alerts, and more!